createdAt,value
2017-07-22T00:02:17.242Z,14.20
2017-07-22T00:04:45.605Z,15.47
2017-07-22T00:07:13.907Z,14.40
2017-07-22T00:09:42.941Z,17.63
2017-07-22T00:12:11.239Z,14.10
2017-07-22T00:14:39.499Z,13.57
2017-07-22T00:17:07.829Z,15.00
2017-07-22T00:19:36.873Z,13.03
2017-07-22T00:22:05.220Z,13.47
2017-07-22T00:24:33.571Z,11.63
2017-07-22T00:27:01.902Z,12.30
2017-07-22T00:29:30.245Z,11.97
2017-07-22T00:31:59.285Z,12.47
2017-07-22T00:34:27.628Z,11.77
2017-07-22T00:36:56.018Z,11.90
2017-07-22T00:39:24.376Z,12.80
2017-07-22T00:41:52.673Z,12.63
2017-07-22T00:44:21.079Z,13.77
2017-07-22T00:46:50.235Z,11.90
2017-07-22T00:49:19.275Z,12.77
2017-07-22T00:51:47.535Z,12.30
2017-07-22T00:54:15.848Z,12.80
2017-07-22T00:56:44.127Z,13.07
2017-07-22T00:59:12.401Z,11.50
2017-07-22T01:01:40.793Z,12.60
2017-07-22T01:04:09.057Z,12.93
2017-07-22T01:06:38.158Z,11.77
2017-07-22T01:09:06.542Z,11.90
2017-07-22T01:11:34.832Z,11.33
2017-07-22T01:14:03.205Z,11.57
2017-07-22T01:16:31.495Z,11.43
2017-07-22T01:19:00.582Z,13.37
2017-07-22T01:21:28.879Z,12.00
2017-07-22T01:23:57.936Z,12.00
2017-07-22T01:26:26.226Z,11.63
2017-07-22T01:28:54.513Z,12.07
2017-07-22T01:31:22.786Z,11.47
2017-07-22T01:33:51.082Z,11.73
2017-07-22T01:36:20.165Z,12.33
2017-07-22T01:38:49.241Z,11.50
2017-07-22T01:41:17.527Z,12.57
2017-07-22T01:43:45.807Z,13.17
2017-07-22T01:46:14.180Z,12.57
2017-07-22T01:48:42.498Z,11.67
2017-07-22T01:51:10.765Z,12.23
2017-07-22T01:53:39.830Z,13.00
2017-07-22T01:56:08.133Z,12.20
2017-07-22T01:58:37.157Z,12.17
2017-07-22T02:01:05.483Z,13.73
2017-07-22T02:03:33.750Z,12.87
2017-07-22T02:06:02.029Z,13.37
2017-07-22T02:08:30.330Z,13.47
2017-07-22T02:10:59.379Z,13.57
2017-07-22T02:13:27.686Z,13.40
2017-07-22T02:15:56.065Z,13.27
2017-07-22T02:18:24.347Z,13.73
2017-07-22T02:20:52.616Z,13.93
2017-07-22T02:23:20.921Z,15.93
2017-07-22T02:25:49.971Z,14.13
2017-07-22T02:28:18.364Z,13.30
2017-07-22T02:30:46.644Z,12.70
2017-07-22T02:33:15.019Z,14.17
2017-07-22T02:35:43.295Z,13.83
2017-07-22T02:38:11.675Z,14.80
2017-07-22T02:40:40.062Z,12.83
2017-07-22T02:43:08.452Z,14.87
2017-07-22T02:45:37.494Z,15.00
2017-07-22T02:48:05.813Z,16.57
2017-07-22T02:50:34.180Z,15.07
2017-07-22T02:53:02.465Z,14.53
2017-07-22T02:55:30.782Z,15.17
2017-07-22T02:57:59.811Z,15.77
2017-07-22T03:00:28.120Z,16.37
2017-07-22T03:02:56.492Z,16.60
2017-07-22T03:05:24.786Z,15.27
2017-07-22T03:07:53.064Z,15.13
2017-07-22T03:10:21.434Z,16.10
2017-07-22T03:12:49.701Z,16.07
2017-07-22T03:15:18.115Z,15.50
2017-07-22T03:17:47.161Z,15.43
2017-07-22T03:20:15.449Z,14.80
2017-07-22T03:22:43.720Z,15.23
2017-07-22T03:25:11.997Z,16.20
2017-07-22T03:27:40.296Z,16.40
2017-07-22T03:30:08.567Z,14.60
2017-07-22T03:32:36.859Z,15.97
2017-07-22T03:35:05.221Z,15.50
2017-07-22T03:37:33.585Z,17.10
2017-07-22T03:40:01.862Z,15.90
2017-07-22T03:42:30.465Z,15.50
2017-07-22T03:44:58.737Z,16.20
2017-07-22T03:47:27.012Z,15.63
2017-07-22T03:49:55.295Z,15.73
2017-07-22T03:52:23.657Z,15.40
2017-07-22T03:54:51.975Z,13.67
2017-07-22T03:57:21.043Z,15.27
2017-07-22T03:59:49.415Z,14.70
2017-07-22T04:02:17.691Z,14.53
2017-07-22T04:04:45.981Z,13.90
2017-07-22T04:07:14.253Z,15.23
2017-07-22T04:09:42.640Z,14.70
2017-07-22T04:12:10.941Z,15.90
2017-07-22T04:14:39.993Z,17.90
2017-07-22T04:17:08.385Z,15.00
2017-07-22T04:19:36.661Z,13.50
2017-07-22T04:22:05.027Z,17.27
2017-07-22T04:24:33.315Z,15.43
2017-07-22T04:27:01.610Z,14.80
2017-07-22T04:29:29.887Z,13.23
2017-07-22T04:31:58.179Z,14.30
2017-07-22T04:34:27.194Z,13.80
2017-07-22T04:36:55.531Z,13.23
2017-07-22T04:39:23.808Z,14.13
2017-07-22T04:41:52.076Z,15.13
2017-07-22T04:44:20.359Z,13.30
2017-07-22T04:46:48.734Z,13.20
2017-07-22T04:49:17.019Z,12.87
2017-07-22T04:51:45.395Z,14.53
2017-07-22T04:54:13.768Z,12.53
2017-07-22T04:56:42.042Z,12.57
2017-07-22T04:59:10.417Z,13.30
2017-07-22T05:01:38.686Z,12.90
2017-07-22T05:04:06.993Z,12.53
2017-07-22T05:06:36.284Z,12.63
2017-07-22T05:09:04.544Z,11.67
2017-07-22T05:11:32.934Z,12.27
2017-07-22T05:14:01.217Z,11.50
2017-07-22T05:16:29.596Z,12.47
2017-07-22T05:18:57.882Z,12.30
2017-07-22T05:21:26.162Z,12.30
2017-07-22T05:23:55.212Z,12.20
2017-07-22T05:26:23.500Z,12.87
2017-07-22T05:28:51.800Z,12.10
2017-07-22T05:31:20.088Z,12.30
2017-07-22T05:33:49.135Z,11.13
2017-07-22T05:36:17.452Z,11.10
2017-07-22T05:38:45.741Z,12.77
2017-07-22T05:41:14.817Z,11.73
2017-07-22T05:43:43.196Z,11.70
2017-07-22T05:46:11.483Z,13.17
2017-07-22T05:48:39.855Z,12.27
2017-07-22T05:51:08.129Z,12.50
2017-07-22T05:53:36.551Z,12.40
2017-07-22T05:56:04.888Z,11.20
2017-07-22T05:58:33.316Z,11.77
2017-07-22T06:01:01.651Z,11.43
2017-07-22T06:03:29.951Z,12.47
2017-07-22T06:05:59.023Z,12.33
2017-07-22T06:08:27.405Z,10.97
2017-07-22T06:10:55.776Z,12.27
2017-07-22T06:13:24.061Z,12.10
2017-07-22T06:15:52.472Z,12.07
2017-07-22T06:18:21.548Z,11.73
2017-07-22T06:20:49.907Z,11.50
2017-07-22T06:23:18.422Z,11.67
2017-07-22T06:25:46.882Z,13.30
2017-07-22T06:28:15.142Z,10.67
2017-07-22T06:30:43.409Z,10.40
2017-07-22T06:33:11.805Z,10.07
2017-07-22T06:35:40.069Z,11.50
2017-07-22T06:38:08.462Z,10.03
2017-07-22T06:40:36.742Z,10.20
2017-07-22T06:43:05.135Z,10.50
2017-07-22T06:45:33.396Z,10.63
2017-07-22T06:48:01.783Z,10.20
2017-07-22T06:50:30.259Z,9.73
2017-07-22T06:52:58.581Z,12.90
2017-07-22T06:55:26.861Z,10.30
2017-07-22T06:57:55.128Z,11.23
2017-07-22T07:00:23.455Z,10.10
2017-07-22T07:02:51.720Z,10.57
2017-07-22T07:05:20.021Z,9.90
2017-07-22T07:07:48.295Z,9.43
2017-07-22T07:10:16.573Z,10.03
2017-07-22T07:12:44.968Z,10.83
2017-07-22T07:15:13.330Z,9.10
2017-07-22T07:17:41.710Z,9.87
2017-07-22T07:20:10.008Z,10.30
2017-07-22T07:22:38.313Z,9.47
2017-07-22T07:25:06.651Z,9.80
2017-07-22T07:27:34.935Z,9.23
2017-07-22T07:30:03.207Z,9.10
2017-07-22T07:32:31.485Z,9.77
2017-07-22T07:34:59.757Z,9.20
2017-07-22T07:37:28.128Z,9.37
2017-07-22T07:39:56.409Z,9.07
2017-07-22T07:42:24.804Z,10.10
2017-07-22T07:44:53.063Z,9.70
2017-07-22T07:47:21.432Z,9.67
2017-07-22T07:49:49.696Z,9.43
2017-07-22T07:52:18.101Z,9.80
2017-07-22T07:54:46.349Z,9.60
2017-07-22T07:57:14.652Z,9.80
2017-07-22T07:59:42.956Z,10.53
2017-07-22T08:02:12.035Z,9.80
2017-07-22T08:04:40.308Z,10.67
2017-07-22T08:07:08.689Z,11.93
2017-07-22T08:09:36.973Z,11.07
2017-07-22T08:12:05.234Z,10.13
2017-07-22T08:14:33.616Z,10.30
2017-07-22T08:17:01.906Z,10.47
2017-07-22T08:19:30.196Z,9.93
2017-07-22T08:21:59.260Z,9.53
2017-07-22T08:24:27.551Z,10.80
2017-07-22T08:26:55.951Z,11.70
2017-07-22T08:29:24.975Z,9.83
2017-07-22T08:31:53.270Z,10.27
2017-07-22T08:34:21.581Z,11.60
2017-07-22T08:36:49.857Z,10.50
2017-07-22T08:39:18.129Z,10.97
2017-07-22T08:41:46.607Z,11.50
2017-07-22T08:44:14.894Z,10.80
2017-07-22T08:46:43.292Z,10.93
2017-07-22T08:49:12.336Z,10.10
2017-07-22T08:51:40.641Z,19.07
2017-07-22T08:54:09.014Z,10.07
2017-07-22T08:56:37.896Z,9.93
2017-07-22T08:59:06.169Z,9.77
2017-07-22T09:01:34.438Z,9.90
2017-07-22T09:04:02.732Z,14.17
2017-07-22T09:06:30.991Z,10.50
2017-07-22T09:09:00.041Z,9.40
2017-07-22T09:11:28.306Z,9.50
2017-07-22T09:13:56.692Z,9.63
2017-07-22T09:16:24.975Z,10.43
2017-07-22T09:18:53.341Z,9.90
2017-07-22T09:21:21.722Z,9.93
2017-07-22T09:23:50.003Z,8.80
2017-07-22T09:26:18.378Z,9.30
2017-07-22T09:28:46.661Z,9.20
2017-07-22T09:31:15.052Z,9.97
2017-07-22T09:33:43.374Z,8.80
2017-07-22T09:36:11.717Z,8.67
2017-07-22T09:38:40.802Z,9.07
2017-07-22T09:41:09.184Z,9.37
2017-07-22T09:43:37.453Z,8.90
2017-07-22T09:46:05.698Z,9.73
2017-07-22T09:48:34.001Z,8.87
2017-07-22T09:51:02.264Z,8.97
2017-07-22T09:53:30.652Z,8.40
2017-07-22T09:55:58.929Z,8.33
2017-07-22T09:58:27.192Z,9.00
2017-07-22T10:00:56.319Z,9.43
2017-07-22T10:03:24.606Z,8.63
2017-07-22T10:05:52.987Z,10.30
2017-07-22T10:08:21.348Z,8.97
2017-07-22T10:10:49.622Z,8.93
2017-07-22T10:13:17.988Z,9.23
2017-07-22T10:15:46.264Z,9.40
2017-07-22T10:18:14.540Z,8.47
2017-07-22T10:20:42.958Z,8.00
2017-07-22T10:23:12.037Z,9.20
2017-07-22T10:25:40.419Z,8.60
2017-07-22T10:28:08.684Z,9.30
2017-07-22T10:30:37.066Z,8.10
2017-07-22T10:33:05.316Z,8.03
2017-07-22T10:35:33.622Z,7.70
2017-07-22T10:38:01.886Z,8.60
2017-07-22T10:40:30.260Z,9.00
2017-07-22T10:42:58.532Z,9.00
2017-07-22T10:45:26.931Z,8.33
2017-07-22T10:47:55.205Z,8.40
2017-07-22T10:50:23.470Z,12.00
2017-07-22T10:52:51.742Z,9.17
2017-07-22T10:55:20.021Z,9.70
2017-07-22T10:57:48.409Z,9.27
2017-07-22T11:00:16.795Z,10.57
2017-07-22T11:02:45.189Z,9.13
2017-07-22T11:05:13.448Z,9.77
2017-07-22T11:07:41.816Z,10.20
2017-07-22T11:10:10.077Z,10.17
2017-07-22T11:12:38.387Z,9.73
2017-07-22T11:15:06.659Z,9.87
2017-07-22T11:17:34.907Z,10.23
2017-07-22T11:20:03.203Z,9.67
2017-07-22T11:22:31.483Z,9.80
2017-07-22T11:24:59.762Z,10.57
2017-07-22T11:27:28.048Z,10.43
2017-07-22T11:29:56.449Z,10.50
2017-07-22T11:32:24.792Z,10.70
2017-07-22T11:34:53.104Z,10.60
2017-07-22T11:37:21.379Z,9.60
2017-07-22T11:39:49.642Z,10.37
2017-07-22T11:42:18.025Z,11.30
2017-07-22T11:44:46.298Z,10.23
2017-07-22T11:47:14.583Z,10.80
2017-07-22T11:49:42.861Z,10.40
2017-07-22T11:52:11.233Z,11.50
2017-07-22T11:54:39.543Z,10.33
2017-07-22T11:57:08.599Z,10.73
2017-07-22T11:59:36.856Z,10.63
2017-07-22T12:02:05.165Z,10.83
2017-07-22T12:04:33.441Z,11.60
2017-07-22T12:07:01.825Z,11.50
2017-07-22T12:09:30.120Z,12.17
2017-07-22T12:11:59.182Z,11.47
2017-07-22T12:14:27.571Z,11.10
2017-07-22T12:16:55.864Z,11.63
2017-07-22T12:19:24.945Z,11.13
2017-07-22T12:21:53.218Z,11.30
2017-07-22T12:24:21.598Z,11.83
2017-07-22T12:26:49.884Z,11.13
2017-07-22T12:29:18.249Z,11.87
2017-07-22T12:31:46.536Z,11.60
2017-07-22T12:34:14.813Z,11.90
2017-07-22T12:36:43.953Z,11.90
2017-07-22T12:39:12.285Z,12.23
2017-07-22T12:41:40.586Z,12.93
2017-07-22T12:44:09.607Z,12.57
2017-07-22T12:46:38.656Z,13.13
2017-07-22T12:49:06.925Z,12.40
2017-07-22T12:51:35.216Z,12.70
2017-07-22T12:54:04.294Z,13.03
2017-07-22T12:56:32.678Z,13.13
2017-07-22T12:59:00.958Z,14.00
2017-07-22T13:01:29.222Z,12.10
2017-07-22T13:03:57.504Z,12.83
2017-07-22T13:06:25.902Z,13.10
2017-07-22T13:08:54.262Z,12.50
2017-07-22T13:11:22.523Z,12.90
2017-07-22T13:13:50.809Z,13.53
2017-07-22T13:16:19.082Z,13.73
2017-07-22T13:18:47.394Z,12.90
2017-07-22T13:21:16.478Z,12.60
2017-07-22T13:23:44.840Z,8.77
2017-07-22T13:26:13.220Z,7.70
2017-07-22T13:28:41.505Z,8.47
2017-07-22T13:31:09.871Z,13.47
2017-07-22T13:33:38.143Z,10.37
2017-07-22T13:36:07.200Z,8.80
2017-07-22T13:38:35.464Z,9.63
2017-07-22T13:41:03.744Z,8.37
2017-07-22T13:43:31.999Z,5.50
2017-07-22T13:46:00.419Z,4.73
2017-07-22T13:48:28.706Z,4.63
2017-07-22T13:50:57.108Z,5.80
2017-07-22T13:53:26.187Z,4.40
2017-07-22T13:55:54.445Z,7.53
2017-07-22T13:58:22.837Z,5.60
2017-07-22T14:00:51.165Z,5.87
2017-07-22T14:03:19.483Z,5.40
2017-07-22T14:05:47.744Z,6.20
2017-07-22T14:08:16.039Z,5.27
2017-07-22T14:10:44.317Z,6.90
2017-07-22T14:13:12.697Z,5.97
2017-07-22T14:15:40.956Z,6.50
2017-07-22T14:18:09.349Z,9.90
2017-07-22T14:20:37.614Z,8.10
2017-07-22T14:23:05.882Z,9.17
2017-07-22T14:25:34.165Z,10.53
2017-07-22T14:28:02.464Z,11.57
2017-07-22T14:30:30.838Z,8.90
2017-07-22T14:32:59.097Z,11.60
2017-07-22T14:35:27.494Z,10.30
2017-07-22T14:37:55.763Z,10.50
2017-07-22T14:40:24.044Z,11.10
2017-07-22T14:42:52.445Z,11.97
2017-07-22T14:45:21.512Z,10.70
2017-07-22T14:47:49.781Z,10.67
2017-07-22T14:50:18.070Z,9.47
2017-07-22T14:52:46.376Z,10.40
2017-07-22T14:55:15.463Z,10.20
2017-07-22T14:57:43.749Z,12.37
2017-07-22T15:00:12.797Z,11.70
2017-07-22T15:02:41.104Z,11.43
2017-07-22T15:05:09.477Z,9.90
2017-07-22T15:07:37.751Z,8.87
2017-07-22T15:10:06.021Z,9.10
2017-07-22T15:12:34.409Z,9.90
2017-07-22T15:15:02.669Z,8.33
2017-07-22T15:17:30.936Z,7.30
2017-07-22T15:19:59.243Z,8.83
2017-07-22T15:22:27.538Z,6.63
2017-07-22T15:24:55.827Z,7.03
2017-07-22T15:27:24.898Z,7.60
2017-07-22T15:29:53.286Z,6.43
2017-07-22T15:32:21.541Z,5.47
2017-07-22T15:34:49.831Z,7.37
2017-07-22T15:37:18.086Z,6.13
2017-07-22T15:39:46.377Z,6.07
2017-07-22T15:42:14.649Z,5.90
2017-07-22T15:44:42.921Z,6.40
2017-07-22T15:47:11.201Z,7.67
2017-07-22T15:49:39.476Z,8.13
2017-07-22T15:52:07.906Z,8.47
2017-07-22T15:54:36.920Z,8.87
2017-07-22T15:57:05.234Z,9.23
2017-07-22T15:59:33.489Z,9.27
2017-07-22T16:02:01.785Z,9.73
2017-07-22T16:04:30.044Z,9.33
2017-07-22T16:06:58.334Z,10.60
2017-07-22T16:09:26.600Z,9.93
2017-07-22T16:11:55.031Z,8.60
2017-07-22T16:14:24.054Z,8.03
2017-07-22T16:16:52.412Z,8.50
2017-07-22T16:19:20.793Z,8.20
2017-07-22T16:21:49.061Z,8.73
2017-07-22T16:24:17.459Z,8.33
2017-07-22T16:26:45.723Z,8.43
2017-07-22T16:29:14.003Z,7.63
2017-07-22T16:31:42.384Z,8.40
2017-07-22T16:34:10.648Z,8.53
2017-07-22T16:36:38.929Z,10.10
2017-07-22T16:39:07.221Z,10.20
2017-07-22T16:41:36.267Z,13.27
2017-07-22T16:44:04.542Z,11.20
2017-07-22T16:46:32.948Z,11.23
2017-07-22T16:49:01.223Z,10.97
2017-07-22T16:51:29.498Z,12.93
2017-07-22T16:53:57.780Z,12.40
2017-07-22T16:56:26.165Z,12.70
2017-07-22T16:58:54.432Z,13.10
2017-07-22T17:01:22.812Z,13.50
2017-07-22T17:03:51.090Z,14.10
2017-07-22T17:06:19.380Z,14.17
2017-07-22T17:08:47.660Z,15.10
2017-07-22T17:11:16.022Z,11.60
2017-07-22T17:13:44.405Z,11.33
2017-07-22T17:16:12.885Z,11.20
2017-07-22T17:18:41.266Z,9.10
2017-07-22T17:21:09.645Z,10.00
2017-07-22T17:23:37.926Z,9.43
2017-07-22T17:26:06.221Z,10.10
2017-07-22T17:28:35.255Z,9.87
2017-07-22T17:31:03.519Z,11.00
2017-07-22T17:33:31.825Z,10.40
2017-07-22T17:36:00.093Z,10.20
2017-07-22T17:38:28.478Z,10.40
2017-07-22T17:40:56.768Z,9.90
2017-07-22T17:43:25.037Z,9.53
2017-07-22T17:45:53.346Z,8.90
2017-07-22T17:48:21.714Z,8.83
2017-07-22T17:50:49.993Z,8.60
2017-07-22T17:53:18.372Z,7.97
2017-07-22T17:55:46.653Z,6.87
2017-07-22T17:58:14.902Z,7.70
2017-07-22T18:00:43.197Z,7.07
2017-07-22T18:03:11.513Z,7.10
2017-07-22T18:05:40.527Z,6.73
2017-07-22T18:08:08.827Z,7.00
2017-07-22T18:10:37.083Z,7.33
2017-07-22T18:13:05.402Z,7.20
2017-07-22T18:15:33.658Z,6.97
2017-07-22T18:18:01.950Z,6.30
2017-07-22T18:20:30.221Z,7.23
2017-07-22T18:22:58.507Z,7.20
2017-07-22T18:25:27.301Z,6.10
2017-07-22T18:27:55.574Z,6.13
2017-07-22T18:30:23.840Z,6.50
2017-07-22T18:32:52.218Z,6.37
2017-07-22T18:35:20.478Z,6.40
2017-07-22T18:37:48.772Z,7.73
2017-07-22T18:40:17.048Z,8.20
2017-07-22T18:42:45.341Z,7.90
2017-07-22T18:45:13.691Z,8.03
2017-07-22T18:47:41.993Z,7.80
2017-07-22T18:50:10.253Z,7.90
2017-07-22T18:52:38.517Z,8.67
2017-07-22T18:55:06.890Z,8.33
2017-07-22T18:57:35.161Z,8.33
2017-07-22T19:00:03.428Z,9.20
2017-07-22T19:02:31.760Z,9.50
2017-07-22T19:05:00.033Z,8.43
2017-07-22T19:07:28.423Z,8.77
2017-07-22T19:09:56.885Z,8.60
2017-07-22T19:12:25.156Z,8.43
2017-07-22T19:14:53.432Z,8.53
2017-07-22T19:17:21.808Z,9.90
2017-07-22T19:19:50.071Z,8.43
2017-07-22T19:22:18.438Z,8.90
2017-07-22T19:24:46.739Z,10.70
2017-07-22T19:27:15.005Z,7.77
2017-07-22T19:29:43.285Z,9.00
2017-07-22T19:32:11.547Z,11.30
2017-07-22T19:34:39.875Z,11.33
2017-07-22T19:37:08.173Z,9.97
2017-07-22T19:39:36.419Z,9.23
2017-07-22T19:42:04.694Z,10.40
2017-07-22T19:44:32.973Z,9.77
2017-07-22T19:47:01.359Z,10.10
2017-07-22T19:49:29.731Z,10.60
2017-07-22T19:51:57.995Z,10.33
2017-07-22T19:54:26.272Z,11.67
2017-07-22T19:56:54.660Z,12.73
2017-07-22T19:59:22.930Z,11.73
2017-07-22T20:01:51.248Z,12.07
2017-07-22T20:04:19.572Z,13.50
2017-07-22T20:06:47.923Z,12.20
2017-07-22T20:09:16.197Z,12.60
2017-07-22T20:11:44.565Z,13.17
2017-07-22T20:14:12.841Z,16.87
2017-07-22T20:16:41.130Z,15.53
2017-07-22T20:19:09.491Z,13.07
2017-07-22T20:21:37.877Z,14.13
2017-07-22T20:24:06.136Z,14.60
2017-07-22T20:26:34.435Z,15.07
2017-07-22T20:29:02.724Z,14.70
2017-07-22T20:31:31.794Z,13.37
2017-07-22T20:34:00.111Z,13.77
2017-07-22T20:36:29.162Z,14.83
2017-07-22T20:38:57.559Z,14.70
2017-07-22T20:41:25.836Z,16.40
2017-07-22T20:43:54.102Z,16.03
2017-07-22T20:46:22.503Z,16.93
2017-07-22T20:48:50.777Z,15.47
2017-07-22T20:51:19.166Z,15.63
2017-07-22T20:53:48.377Z,17.20
2017-07-22T20:56:16.673Z,17.07
2017-07-22T20:58:44.984Z,17.77
2017-07-22T21:01:13.311Z,18.73
2017-07-22T21:03:42.378Z,18.43
2017-07-22T21:06:10.771Z,19.03
2017-07-22T21:08:39.832Z,17.50
2017-07-22T21:11:08.105Z,17.60
2017-07-22T21:13:36.417Z,17.67
2017-07-22T21:16:04.685Z,19.07
2017-07-22T21:18:32.982Z,19.90
2017-07-22T21:21:02.048Z,19.57
2017-07-22T21:23:30.438Z,18.53
2017-07-22T21:25:58.801Z,17.73
2017-07-22T21:28:27.189Z,20.57
2017-07-22T21:30:55.471Z,18.47
2017-07-22T21:33:23.835Z,17.90
2017-07-22T21:35:52.131Z,18.50
2017-07-22T21:38:20.398Z,18.87
2017-07-22T21:40:48.777Z,17.30
2017-07-22T21:43:17.114Z,18.67
2017-07-22T21:45:45.441Z,17.97
2017-07-22T21:48:13.699Z,18.43
2017-07-22T21:50:42.003Z,20.73
2017-07-22T21:53:10.271Z,20.53
2017-07-22T21:55:38.636Z,21.37
2017-07-22T21:58:06.895Z,22.83
2017-07-22T22:00:35.216Z,22.87
2017-07-22T22:03:03.626Z,26.20
2017-07-22T22:05:34.152Z,25.73
2017-07-22T22:08:03.478Z,25.07
2017-07-22T22:10:32.381Z,24.87
2017-07-22T22:13:01.306Z,26.30
2017-07-22T22:15:31.264Z,24.73
2017-07-22T22:17:59.556Z,26.67
2017-07-22T22:20:28.414Z,27.03
2017-07-22T22:22:57.533Z,27.20
2017-07-22T22:25:26.621Z,30.60
2017-07-22T22:27:54.889Z,27.10
2017-07-22T22:30:23.274Z,25.97
2017-07-22T22:32:51.635Z,25.07
2017-07-22T22:35:20.674Z,27.83
2017-07-22T22:37:48.963Z,27.57
2017-07-22T22:40:17.253Z,27.03
2017-07-22T22:42:45.534Z,27.83
2017-07-22T22:45:13.920Z,29.03
2017-07-22T22:47:42.290Z,29.47
2017-07-22T22:50:10.601Z,28.10
2017-07-22T22:52:39.664Z,29.63
2017-07-22T22:55:08.041Z,34.40
2017-07-22T22:57:36.324Z,31.53
2017-07-22T23:00:04.717Z,31.10
2017-07-22T23:02:33.007Z,30.47
2017-07-22T23:05:02.045Z,32.07
2017-07-22T23:07:30.340Z,34.23
2017-07-22T23:09:58.621Z,35.63
2017-07-22T23:12:26.913Z,35.70
2017-07-22T23:14:55.189Z,33.13
2017-07-22T23:17:23.564Z,33.60
2017-07-22T23:19:51.823Z,38.03
2017-07-22T23:22:20.222Z,36.17
2017-07-22T23:24:48.598Z,40.03
2017-07-22T23:27:16.866Z,39.03
2017-07-22T23:29:45.186Z,37.73
2017-07-22T23:32:13.481Z,37.00
2017-07-22T23:34:41.780Z,38.27
2017-07-22T23:37:10.083Z,40.10
2017-07-22T23:39:38.373Z,37.40
2017-07-22T23:42:07.452Z,39.83
2017-07-22T23:44:35.746Z,37.90
2017-07-22T23:47:04.835Z,38.00
2017-07-22T23:49:33.205Z,38.00
2017-07-22T23:52:01.480Z,38.80
2017-07-22T23:54:29.753Z,41.10
2017-07-22T23:56:58.060Z,39.40
2017-07-22T23:59:27.113Z,38.93
